Time;durP1;ratioP1;P1;durP2;ratioP2;P2;SDS_P1;SDS_P2;PMS_P1;PMS_P2;Temp;Humidity;BMP_temperature;BMP_pressure;BME280_temperature;BME280_humidity;BME280_pressure;Samples;Min_cycle;Max_cycle;Signal;HPM_P1;HPM_P2
2022/03/09 00:00:07;;;;;;;22.97;13.33;;;3.60;99.90;;;;;;5022311;28;20975;-79
2022/03/09 00:02:33;;;;;;;14.33;11.60;;;3.50;99.90;;;;;;5009139;28;20781;-80
2022/03/09 00:04:58;;;;;;;17.10;11.23;;;3.50;99.90;;;;;;5023493;28;20231;-73
2022/03/09 00:07:26;;;;;;;17.53;10.43;;;3.50;99.90;;;;;;5021292;28;20214;-76
2022/03/09 00:09:51;;;;;;;23.83;14.33;;;3.50;99.90;;;;;;5010854;28;20207;-74
2022/03/09 00:12:17;;;;;;;18.60;12.93;;;3.50;99.90;;;;;;5017173;28;20621;-76
2022/03/09 00:14:43;;;;;;;19.57;13.53;;;3.40;99.90;;;;;;5013730;28;20218;-72
2022/03/09 00:17:08;;;;;;;20.20;14.03;;;3.40;99.90;;;;;;5021195;28;20225;-71
2022/03/09 00:19:34;;;;;;;25.83;14.17;;;3.40;99.90;;;;;;5013061;28;20274;-70
2022/03/09 00:21:59;;;;;;;27.27;16.00;;;3.30;99.90;;;;;;5020640;28;20192;-69
2022/03/09 00:24:25;;;;;;;23.10;16.27;;;3.30;99.90;;;;;;5017423;28;20551;-70
2022/03/09 00:26:50;;;;;;;22.77;15.67;;;3.20;99.90;;;;;;5008336;28;20319;-70
2022/03/09 00:29:16;;;;;;;30.37;19.63;;;3.20;99.90;;;;;;5009354;28;20562;-70
2022/03/09 00:31:41;;;;;;;34.07;20.27;;;3.10;99.90;;;;;;5012182;28;20202;-70
2022/03/09 00:34:07;;;;;;;42.17;26.50;;;2.90;99.90;;;;;;5015824;28;20574;-77
2022/03/09 00:36:32;;;;;;;40.97;24.20;;;2.90;99.90;;;;;;5024779;28;20187;-74
2022/03/09 00:38:58;;;;;;;52.53;28.97;;;2.90;99.90;;;;;;5014041;28;20622;-77
2022/03/09 00:41:23;;;;;;;56.97;32.57;;;2.90;99.90;;;;;;5014722;28;20199;-74
2022/03/09 00:43:49;;;;;;;51.07;31.97;;;2.80;99.90;;;;;;5021943;28;20217;-73
2022/03/09 00:46:14;;;;;;;47.30;27.17;;;2.80;99.90;;;;;;5016568;28;20191;-76
2022/03/09 00:48:40;;;;;;;54.70;28.23;;;2.80;99.90;;;;;;5015134;28;20651;-73
2022/03/09 00:51:07;;;;;;;46.87;28.67;;;2.80;99.90;;;;;;5016594;28;20207;-75
2022/03/09 00:53:32;;;;;;;31.13;21.17;;;2.90;99.90;;;;;;5017533;28;20283;-70
2022/03/09 00:55:57;;;;;;;32.03;20.90;;;2.90;99.90;;;;;;5008664;28;20771;-75
2022/03/09 00:58:23;;;;;;;37.03;23.00;;;2.80;99.90;;;;;;5014965;28;20228;-81
2022/03/09 01:00:49;;;;;;;40.63;25.67;;;2.80;99.90;;;;;;5015766;28;20188;-80
2022/03/09 01:03:15;;;;;;;44.97;25.77;;;2.80;99.90;;;;;;5012699;28;20687;-77
2022/03/09 01:05:40;;;;;;;32.37;20.47;;;2.80;99.90;;;;;;5012775;28;20192;-66
2022/03/09 01:08:06;;;;;;;29.30;20.93;;;2.80;99.90;;;;;;5013937;28;20564;-66
2022/03/09 01:10:31;;;;;;;33.27;19.57;;;2.80;99.90;;;;;;5016221;28;20188;-66
2022/03/09 01:12:57;;;;;;;33.93;18.87;;;2.70;99.90;;;;;;5016332;28;20191;-66
2022/03/09 01:15:23;;;;;;;30.73;18.63;;;2.80;99.90;;;;;;5005159;28;20539;-66
2022/03/09 01:17:48;;;;;;;35.03;18.27;;;2.70;99.90;;;;;;5010657;28;20195;-65
2022/03/09 01:20:14;;;;;;;29.03;17.40;;;2.70;99.90;;;;;;5013071;28;20204;-66
2022/03/09 01:22:40;;;;;;;22.93;13.80;;;2.70;99.90;;;;;;5006739;28;20208;-65
2022/03/09 01:25:06;;;;;;;25.93;15.40;;;2.70;99.90;;;;;;5013191;28;20250;-66
2022/03/09 01:27:32;;;;;;;17.23;12.53;;;2.50;99.90;;;;;;5012377;28;20211;-65
2022/03/09 01:29:57;;;;;;;17.60;12.33;;;2.20;99.90;;;;;;5021317;28;20364;-67
2022/03/09 01:32:23;;;;;;;19.00;11.97;;;2.20;99.90;;;;;;5023069;28;20776;-66
2022/03/09 01:34:49;;;;;;;16.70;12.07;;;2.30;99.90;;;;;;5015854;28;20583;-66
2022/03/09 01:37:15;;;;;;;14.77;10.53;;;2.40;99.90;;;;;;5006507;28;20192;-67
2022/03/09 01:39:40;;;;;;;17.27;11.43;;;2.40;99.90;;;;;;5018355;28;20669;-70
2022/03/09 01:42:06;;;;;;;15.57;10.67;;;2.50;99.90;;;;;;5025234;28;20196;-69
2022/03/09 01:44:32;;;;;;;16.37;12.53;;;2.50;99.90;;;;;;5015928;28;20526;-68
2022/03/09 01:46:57;;;;;;;24.00;14.53;;;2.50;99.90;;;;;;5018838;28;20257;-69
2022/03/09 01:49:26;;;;;;;20.03;13.90;;;2.50;99.90;;;;;;5009953;28;20232;-68
2022/03/09 01:51:53;;;;;;;19.53;13.90;;;2.50;99.90;;;;;;5014493;28;20206;-68
2022/03/09 01:54:19;;;;;;;18.90;13.87;;;2.50;99.90;;;;;;5013275;28;20226;-68
2022/03/09 01:56:46;;;;;;;20.23;13.50;;;2.50;99.90;;;;;;5005978;28;20196;-68
2022/03/09 01:59:14;;;;;;;18.17;12.83;;;2.50;99.90;;;;;;5004065;28;20243;-70
2022/03/09 02:01:40;;;;;;;20.20;12.67;;;2.50;99.90;;;;;;5008723;28;20824;-70
2022/03/09 02:04:06;;;;;;;17.03;11.37;;;2.50;99.90;;;;;;4998160;28;20203;-70
2022/03/09 02:06:33;;;;;;;21.17;13.03;;;2.50;99.90;;;;;;5005753;28;20216;-69
2022/03/09 02:11:44;;;;;;;19.40;14.10;;;2.50;99.90;;;;;;5013935;28;20198;-66
2022/03/09 02:14:30;;;;;;;17.77;14.30;;;2.50;99.90;;;;;;5022774;28;20215;-66
2022/03/09 02:16:57;;;;;;;22.23;14.53;;;2.50;99.90;;;;;;5004645;28;20280;-66
2022/03/09 02:19:22;;;;;;;17.63;13.03;;;2.50;99.90;;;;;;5009275;28;20196;-66
2022/03/09 02:21:51;;;;;;;22.53;14.90;;;2.50;99.90;;;;;;5006597;28;20171;-66
2022/03/09 02:24:16;;;;;;;20.33;14.47;;;2.50;99.90;;;;;;5013681;28;20574;-66
2022/03/09 02:26:42;;;;;;;23.93;14.47;;;2.40;99.90;;;;;;5021470;28;20233;-68
2022/03/09 02:29:08;;;;;;;18.03;14.63;;;2.50;99.90;;;;;;5022297;28;20234;-66
2022/03/09 02:31:34;;;;;;;16.90;13.33;;;2.40;99.90;;;;;;5022480;28;20203;-67
2022/03/09 02:33:59;;;;;;;19.43;13.67;;;2.40;99.90;;;;;;5011831;28;20677;-67
2022/03/09 02:36:25;;;;;;;19.30;12.73;;;2.40;99.90;;;;;;5006206;28;20230;-66
2022/03/09 02:38:50;;;;;;;15.30;12.90;;;2.40;99.90;;;;;;5003767;28;20204;-66
2022/03/09 02:41:16;;;;;;;18.23;12.40;;;2.40;99.90;;;;;;5017217;28;20194;-67
2022/03/09 02:43:41;;;;;;;19.23;13.87;;;2.30;99.90;;;;;;5012496;28;20241;-67
2022/03/09 02:46:07;;;;;;;17.17;11.87;;;2.30;99.90;;;;;;5013810;28;20278;-67
2022/03/09 02:48:32;;;;;;;20.20;14.23;;;2.30;99.90;;;;;;5008548;28;20562;-70
2022/03/09 02:50:58;;;;;;;27.23;15.67;;;2.20;99.90;;;;;;5012178;28;20195;-69
2022/03/09 02:53:23;;;;;;;23.23;14.30;;;2.20;99.90;;;;;;5003886;28;20200;-69
2022/03/09 02:55:49;;;;;;;17.27;11.73;;;2.20;99.90;;;;;;5013916;28;20217;-68
2022/03/09 02:58:15;;;;;;;22.77;15.40;;;2.10;99.90;;;;;;5010207;28;20530;-67
2022/03/09 03:00:40;;;;;;;19.33;12.90;;;2.10;99.90;;;;;;5005869;28;20185;-68
2022/03/09 03:03:06;;;;;;;16.67;13.37;;;2.00;99.90;;;;;;5009380;28;20219;-70
2022/03/09 03:05:31;;;;;;;16.17;11.83;;;2.00;99.90;;;;;;5013307;28;20192;-69
2022/03/09 03:07:57;;;;;;;16.30;12.33;;;2.00;99.90;;;;;;5017931;28;20187;-65
2022/03/09 03:10:22;;;;;;;17.17;11.60;;;2.00;99.90;;;;;;5013762;28;20680;-66
2022/03/09 03:12:48;;;;;;;14.30;11.60;;;2.00;99.90;;;;;;5021936;28;20584;-65
2022/03/09 03:15:14;;;;;;;18.60;12.03;;;2.00;99.90;;;;;;5003913;28;20208;-66
2022/03/09 03:17:39;;;;;;;16.73;12.53;;;2.00;99.90;;;;;;5007637;28;20706;-66
2022/03/09 03:20:06;;;;;;;17.57;11.90;;;2.00;99.90;;;;;;5008915;28;20226;-65
2022/03/09 03:22:31;;;;;;;15.93;10.87;;;2.00;99.90;;;;;;5007049;28;20796;-71
2022/03/09 03:24:57;;;;;;;14.00;11.37;;;2.00;99.90;;;;;;5010748;28;20236;-72
2022/03/09 03:27:23;;;;;;;17.47;11.83;;;2.00;99.90;;;;;;5011325;28;20310;-71
2022/03/09 03:29:48;;;;;;;17.33;11.93;;;2.00;99.90;;;;;;5023149;28;20669;-70
2022/03/09 03:32:14;;;;;;;17.07;11.70;;;2.00;99.90;;;;;;5007991;28;20295;-70
2022/03/09 03:34:39;;;;;;;15.37;10.10;;;2.00;99.90;;;;;;5009823;28;20227;-68
2022/03/09 03:37:06;;;;;;;15.83;10.57;;;2.00;99.90;;;;;;5010057;28;20515;-69
2022/03/09 03:39:31;;;;;;;15.80;10.77;;;2.00;99.90;;;;;;5017970;28;20217;-69
2022/03/09 03:41:57;;;;;;;16.47;12.30;;;2.00;99.90;;;;;;5006593;28;20722;-69
2022/03/09 03:44:22;;;;;;;17.13;10.97;;;2.00;99.90;;;;;;5017662;28;20210;-69
2022/03/09 03:46:48;;;;;;;13.47;10.17;;;2.00;99.90;;;;;;5018391;28;20895;-70
2022/03/09 03:49:13;;;;;;;15.73;10.83;;;2.00;99.90;;;;;;5016111;28;20277;-69
2022/03/09 03:51:39;;;;;;;16.20;11.83;;;2.00;99.90;;;;;;5023340;28;20682;-69
2022/03/09 03:54:04;;;;;;;18.00;11.53;;;2.00;99.90;;;;;;5019812;28;20567;-68
2022/03/09 03:56:30;;;;;;;14.00;10.47;;;2.00;99.90;;;;;;5021162;28;20237;-68
2022/03/09 03:58:55;;;;;;;12.90;9.83;;;2.00;99.90;;;;;;5022077;28;20202;-69
2022/03/09 04:01:21;;;;;;;16.80;10.87;;;1.90;99.90;;;;;;5010919;28;20204;-68
2022/03/09 04:03:47;;;;;;;14.73;10.87;;;1.90;99.90;;;;;;5012843;28;20201;-68
2022/03/09 04:06:12;;;;;;;17.67;11.27;;;1.90;99.90;;;;;;5015715;28;20208;-72
2022/03/09 04:08:38;;;;;;;17.50;10.93;;;1.90;99.90;;;;;;5008562;28;20219;-77
2022/03/09 04:11:03;;;;;;;17.80;11.50;;;1.80;99.90;;;;;;5010176;28;20303;-74
2022/03/09 04:13:29;;;;;;;15.57;11.33;;;1.80;99.90;;;;;;5008515;28;20207;-70
2022/03/09 04:15:54;;;;;;;13.03;10.17;;;1.80;99.90;;;;;;5015757;28;20240;-70
2022/03/09 04:18:20;;;;;;;18.00;11.27;;;1.80;99.90;;;;;;5022396;28;20312;-70
2022/03/09 04:20:45;;;;;;;15.97;10.70;;;1.80;99.90;;;;;;5014002;28;20257;-71
2022/03/09 04:23:11;;;;;;;12.73;10.90;;;1.80;99.90;;;;;;5008436;28;20188;-71
2022/03/09 04:25:37;;;;;;;15.40;10.33;;;1.80;99.90;;;;;;5006310;28;20681;-70
2022/03/09 04:28:03;;;;;;;16.03;10.93;;;1.80;99.90;;;;;;5018477;28;20288;-71
2022/03/09 04:30:28;;;;;;;18.80;10.90;;;1.80;99.90;;;;;;5023787;28;20285;-71
2022/03/09 04:32:54;;;;;;;15.50;10.13;;;1.80;99.90;;;;;;5015153;28;20556;-71
2022/03/09 04:35:19;;;;;;;13.83;11.67;;;1.80;99.90;;;;;;5005757;28;20463;-70
2022/03/09 04:37:45;;;;;;;15.00;10.40;;;1.70;99.90;;;;;;5023583;28;20182;-70
2022/03/09 04:40:11;;;;;;;13.80;9.93;;;1.70;99.90;;;;;;5017149;28;20199;-70
2022/03/09 04:42:37;;;;;;;17.00;10.73;;;1.70;99.90;;;;;;5028190;28;20179;-70
2022/03/09 04:45:03;;;;;;;16.47;10.80;;;1.60;99.90;;;;;;5012254;28;20191;-70
2022/03/09 04:47:29;;;;;;;14.83;10.93;;;1.40;99.90;;;;;;5018329;28;20209;-70
2022/03/09 04:49:54;;;;;;;17.43;10.60;;;1.40;99.90;;;;;;5007010;28;20661;-71
2022/03/09 04:52:20;;;;;;;14.83;10.43;;;1.50;99.90;;;;;;5015360;28;20202;-70
2022/03/09 04:54:46;;;;;;;17.20;11.47;;;1.50;99.90;;;;;;5012764;28;20669;-70
2022/03/09 04:57:12;;;;;;;17.60;10.47;;;1.50;99.90;;;;;;5014133;28;20286;-70
2022/03/09 04:59:37;;;;;;;15.83;11.30;;;1.60;99.90;;;;;;5010524;28;20276;-70
2022/03/09 05:02:03;;;;;;;14.60;10.27;;;1.60;99.90;;;;;;5012878;28;20199;-70
2022/03/09 05:04:28;;;;;;;17.43;12.37;;;1.60;99.90;;;;;;5008740;28;20290;-69
2022/03/09 05:06:55;;;;;;;20.17;15.37;;;1.60;99.90;;;;;;5023386;28;20207;-69
2022/03/09 05:09:21;;;;;;;27.83;15.27;;;1.60;99.90;;;;;;5007272;28;20207;-70
2022/03/09 05:11:46;;;;;;;20.63;13.27;;;1.60;99.90;;;;;;5017523;28;20209;-70
2022/03/09 05:14:11;;;;;;;20.87;11.93;;;1.60;99.90;;;;;;5007359;28;20211;-69
2022/03/09 05:16:37;;;;;;;22.13;13.57;;;1.60;99.90;;;;;;5018463;28;20288;-70
2022/03/09 05:19:03;;;;;;;16.07;11.67;;;1.60;99.90;;;;;;5006519;28;20192;-70
2022/03/09 05:21:28;;;;;;;21.53;11.90;;;1.60;99.90;;;;;;5016400;28;20192;-70
2022/03/09 05:23:54;;;;;;;31.73;19.20;;;1.60;99.90;;;;;;5007743;28;20192;-70
2022/03/09 05:26:19;;;;;;;15.77;11.23;;;1.60;99.90;;;;;;5005469;28;20605;-71
2022/03/09 05:28:45;;;;;;;15.23;11.20;;;1.50;99.90;;;;;;4991459;28;20196;-73
2022/03/09 05:31:11;;;;;;;17.70;11.13;;;1.50;99.90;;;;;;4997984;28;20203;-74
2022/03/09 05:33:36;;;;;;;16.10;10.33;;;1.60;99.90;;;;;;5002583;28;20196;-75
2022/03/09 05:36:02;;;;;;;14.67;9.93;;;1.50;99.90;;;;;;4996481;28;20333;-74
2022/03/09 05:38:27;;;;;;;18.03;10.57;;;1.50;99.90;;;;;;4993248;28;20245;-74
2022/03/09 05:40:52;;;;;;;18.27;11.90;;;1.50;99.90;;;;;;5000779;28;20194;-74
2022/03/09 05:43:18;;;;;;;28.63;16.03;;;1.50;99.90;;;;;;4996095;28;20187;-75
2022/03/09 05:45:43;;;;;;;65.60;34.93;;;1.40;99.90;;;;;;5001217;28;20298;-75
2022/03/09 05:48:09;;;;;;;59.07;32.27;;;1.40;99.90;;;;;;4994768;28;20809;-71
2022/03/09 05:50:36;;;;;;;67.07;30.07;;;1.30;99.90;;;;;;4999822;28;20307;-71
2022/03/09 05:53:02;;;;;;;64.03;30.30;;;1.30;99.90;;;;;;5006510;28;20229;-71
2022/03/09 05:55:28;;;;;;;44.50;23.90;;;1.40;99.90;;;;;;5003303;28;20227;-70
2022/03/09 05:57:53;;;;;;;32.67;18.87;;;1.30;99.90;;;;;;5004151;28;20206;-71
2022/03/09 06:00:19;;;;;;;28.57;17.13;;;1.40;99.90;;;;;;5006579;28;20218;-72
2022/03/09 06:02:44;;;;;;;24.40;15.40;;;1.40;99.90;;;;;;4991470;28;20617;-71
2022/03/09 06:05:10;;;;;;;22.00;14.87;;;1.50;99.90;;;;;;5006941;28;20190;-72
2022/03/09 06:07:36;;;;;;;19.27;13.17;;;1.50;99.90;;;;;;4991033;28;20563;-71
2022/03/09 06:10:05;;;;;;;27.00;17.00;;;1.50;99.90;;;;;;5005184;28;20203;-71
2022/03/09 06:12:30;;;;;;;51.27;25.70;;;1.60;99.90;;;;;;4998408;28;20200;-72
2022/03/09 06:14:56;;;;;;;32.17;19.63;;;1.60;99.90;;;;;;5006822;28;20253;-70
2022/03/09 06:17:22;;;;;;;31.20;19.20;;;1.50;99.90;;;;;;5001978;28;20200;-71
2022/03/09 06:19:47;;;;;;;29.93;17.03;;;1.50;99.90;;;;;;5005894;28;20233;-71
2022/03/09 06:22:13;;;;;;;25.27;18.13;;;1.60;99.90;;;;;;4996127;28;20207;-71
2022/03/09 06:24:39;;;;;;;26.63;16.93;;;1.60;99.90;;;;;;5005963;28;20690;-71
2022/03/09 06:27:04;;;;;;;24.27;16.97;;;1.60;99.90;;;;;;5013159;28;20253;-71
2022/03/09 06:29:30;;;;;;;26.77;15.57;;;1.70;99.90;;;;;;5026051;28;20188;-70
2022/03/09 06:31:55;;;;;;;23.37;13.37;;;1.70;99.90;;;;;;5019626;28;20538;-72
2022/03/09 06:34:21;;;;;;;23.77;13.87;;;1.70;99.90;;;;;;5004139;28;20697;-72
2022/03/09 06:36:47;;;;;;;17.50;12.53;;;1.60;99.90;;;;;;5005848;28;20192;-73
2022/03/09 06:39:14;;;;;;;24.53;12.87;;;1.70;99.90;;;;;;5004986;28;20253;-71
2022/03/09 06:41:41;;;;;;;21.17;14.57;;;1.80;99.90;;;;;;5014438;28;20196;-71
2022/03/09 06:44:06;;;;;;;22.50;13.80;;;1.90;99.90;;;;;;5005603;28;20201;-69
2022/03/09 06:46:33;;;;;;;17.07;12.80;;;1.90;99.90;;;;;;5012465;28;20624;-70
2022/03/09 06:48:58;;;;;;;20.17;14.57;;;1.90;99.90;;;;;;5006493;28;20212;-71
2022/03/09 06:51:24;;;;;;;17.87;11.67;;;2.00;99.90;;;;;;5011015;28;20286;-67
2022/03/09 06:53:49;;;;;;;24.17;13.07;;;2.00;99.90;;;;;;5025500;28;20294;-68
2022/03/09 06:56:18;;;;;;;21.37;13.80;;;2.10;99.90;;;;;;5004084;28;20262;-69
2022/03/09 06:58:43;;;;;;;21.43;13.03;;;2.20;99.90;;;;;;5025274;28;20380;-68
2022/03/09 07:01:09;;;;;;;23.93;15.50;;;2.30;99.90;;;;;;5005782;28;20200;-70
2022/03/09 07:03:34;;;;;;;20.80;13.60;;;2.30;99.90;;;;;;5011771;28;20190;-69
2022/03/09 07:06:00;;;;;;;20.17;14.10;;;2.40;99.90;;;;;;5008348;28;20210;-70
2022/03/09 07:08:25;;;;;;;24.30;15.10;;;2.50;99.90;;;;;;5029146;28;20183;-69
2022/03/09 07:10:51;;;;;;;20.53;13.07;;;2.60;99.90;;;;;;5025170;28;20202;-70
2022/03/09 07:13:16;;;;;;;21.27;13.60;;;2.70;99.90;;;;;;5029537;28;20172;-70
2022/03/09 07:15:42;;;;;;;16.27;13.47;;;2.70;99.90;;;;;;5011244;28;20214;-71
2022/03/09 07:18:07;;;;;;;20.30;15.03;;;2.80;99.90;;;;;;5029601;28;20599;-72
2022/03/09 07:20:33;;;;;;;20.10;12.73;;;3.00;99.90;;;;;;5008618;28;20540;-71
2022/03/09 07:22:58;;;;;;;20.17;13.13;;;3.00;99.90;;;;;;5029649;28;20299;-70
2022/03/09 07:25:24;;;;;;;24.00;14.60;;;3.10;99.90;;;;;;5017711;28;20235;-69
2022/03/09 07:27:50;;;;;;;17.37;13.50;;;3.20;99.90;;;;;;5026741;28;20253;-69
2022/03/09 07:30:15;;;;;;;16.87;12.77;;;3.30;99.90;;;;;;5009568;28;20188;-68
2022/03/09 07:32:41;;;;;;;17.37;13.07;;;3.40;99.90;;;;;;5024868;28;20204;-66
2022/03/09 07:35:09;;;;;;;20.60;13.30;;;3.50;99.90;;;;;;5011912;28;20295;-69
2022/03/09 07:37:34;;;;;;;18.13;11.00;;;3.60;99.90;;;;;;5024349;28;20341;-67
2022/03/09 07:40:00;;;;;;;16.17;11.07;;;3.70;99.90;;;;;;5009694;28;20287;-70
2022/03/09 07:42:26;;;;;;;16.33;12.10;;;3.80;99.90;;;;;;5022516;28;20203;-69
2022/03/09 07:44:51;;;;;;;21.40;12.70;;;3.90;99.90;;;;;;5017542;28;20251;-74
2022/03/09 07:47:17;;;;;;;16.40;11.63;;;4.00;99.90;;;;;;5023490;28;20344;-75
2022/03/09 07:49:42;;;;;;;16.43;12.53;;;4.00;99.90;;;;;;5009335;28;20203;-68
2022/03/09 07:52:08;;;;;;;17.13;11.60;;;4.10;99.90;;;;;;5019883;28;20230;-70
2022/03/09 07:54:33;;;;;;;14.77;11.30;;;4.20;99.90;;;;;;5019172;28;20541;-70
2022/03/09 07:56:59;;;;;;;19.77;10.43;;;4.30;99.90;;;;;;5024747;28;20264;-70
2022/03/09 07:59:28;;;;;;;13.63;10.53;;;4.30;99.90;;;;;;5021765;28;20199;-73
2022/03/09 08:01:54;;;;;;;14.10;9.90;;;4.40;99.90;;;;;;5023557;28;20202;-73
2022/03/09 08:04:20;;;;;;;13.53;9.70;;;4.50;99.90;;;;;;5016930;28;20273;-73
2022/03/09 08:06:50;;;;;;;13.90;8.60;;;4.60;99.90;;;;;;5017328;28;20195;-73
2022/03/09 08:09:16;;;;;;;13.33;8.70;;;4.70;99.90;;;;;;5011941;28;20393;-72
2022/03/09 08:11:42;;;;;;;12.13;8.80;;;4.80;99.90;;;;;;5006963;28;20204;-72
2022/03/09 08:14:08;;;;;;;14.57;8.33;;;4.90;99.90;;;;;;5007084;28;20246;-72
2022/03/09 08:16:34;;;;;;;13.60;8.53;;;5.00;99.90;;;;;;5005849;28;20204;-72
2022/03/09 08:18:59;;;;;;;10.53;7.87;;;5.10;99.90;;;;;;5007359;28;20191;-72
2022/03/09 08:21:25;;;;;;;10.67;7.27;;;5.10;99.90;;;;;;5015000;28;20209;-72
2022/03/09 08:23:50;;;;;;;8.77;7.50;;;5.20;99.90;;;;;;5007042;28;20208;-72
2022/03/09 08:26:16;;;;;;;7.83;6.33;;;5.30;99.90;;;;;;5018329;28;20460;-74
2022/03/09 08:28:42;;;;;;;8.53;6.00;;;5.40;99.90;;;;;;5013666;28;20588;-71
2022/03/09 08:31:08;;;;;;;8.90;6.50;;;5.50;99.90;;;;;;5015644;28;20508;-71
2022/03/09 08:33:33;;;;;;;8.93;6.97;;;5.60;99.90;;;;;;5006631;28;20568;-72
2022/03/09 08:35:59;;;;;;;8.27;6.57;;;5.70;99.90;;;;;;5019741;28;20729;-72
2022/03/09 08:38:25;;;;;;;6.93;6.23;;;5.70;99.90;;;;;;5005959;28;20547;-72
2022/03/09 08:40:51;;;;;;;10.17;7.17;;;5.90;99.90;;;;;;5012278;28;20282;-72
2022/03/09 08:43:17;;;;;;;9.60;6.47;;;6.00;99.90;;;;;;5015435;28;20199;-72
2022/03/09 08:45:43;;;;;;;9.13;6.23;;;6.00;99.90;;;;;;5019524;28;20231;-72
2022/03/09 08:48:09;;;;;;;9.33;5.83;;;6.10;99.90;;;;;;5003684;28;20192;-72
2022/03/09 08:50:34;;;;;;;7.47;5.83;;;6.20;99.90;;;;;;5007466;28;20238;-72
2022/03/09 08:53:00;;;;;;;8.63;5.93;;;6.30;99.90;;;;;;5014475;28;20188;-72
2022/03/09 08:55:26;;;;;;;6.93;5.93;;;6.40;99.70;;;;;;5010988;28;20212;-72
2022/03/09 08:57:51;;;;;;;9.23;5.70;;;6.50;99.90;;;;;;5012806;28;20226;-72
2022/03/09 09:00:17;;;;;;;10.83;5.57;;;6.50;99.70;;;;;;5012480;28;20199;-70
2022/03/09 09:02:43;;;;;;;6.90;5.33;;;6.60;99.70;;;;;;5019356;28;20724;-71
2022/03/09 09:05:09;;;;;;;5.07;4.27;;;6.60;99.00;;;;;;5006100;28;20595;-70
2022/03/09 09:07:34;;;;;;;6.43;4.47;;;6.60;99.10;;;;;;5008776;28;20719;-73
2022/03/09 09:10:00;;;;;;;8.10;5.27;;;6.70;98.80;;;;;;5016212;28;20207;-73
2022/03/09 09:12:25;;;;;;;10.47;6.03;;;6.80;98.40;;;;;;5016685;28;20204;-74
2022/03/09 09:14:51;;;;;;;6.10;5.23;;;6.90;98.90;;;;;;5010123;28;20381;-73
2022/03/09 09:17:16;;;;;;;7.60;5.97;;;7.00;98.70;;;;;;4997208;28;20303;-76
2022/03/09 09:19:42;;;;;;;6.63;5.47;;;7.00;98.40;;;;;;4992785;28;20219;-75
2022/03/09 09:22:07;;;;;;;7.57;5.70;;;7.10;98.00;;;;;;5007053;28;20291;-75
2022/03/09 09:24:33;;;;;;;7.37;5.90;;;7.20;98.30;;;;;;5002780;28;20212;-74
2022/03/09 09:26:59;;;;;;;7.37;4.60;;;7.50;98.00;;;;;;5005317;28;20237;-77
2022/03/09 09:29:24;;;;;;;7.80;5.50;;;7.60;97.30;;;;;;5011462;28;20596;-71
2022/03/09 09:31:49;;;;;;;5.77;5.20;;;7.60;96.70;;;;;;5023498;28;20218;-69
2022/03/09 09:34:16;;;;;;;7.27;5.13;;;7.60;96.30;;;;;;5004569;28;20216;-70
2022/03/09 09:36:43;;;;;;;5.77;4.37;;;7.60;96.00;;;;;;5006913;28;20196;-70
2022/03/09 09:39:09;;;;;;;7.40;5.40;;;7.70;96.10;;;;;;5004515;28;20204;-70
2022/03/09 09:41:36;;;;;;;7.10;4.90;;;7.60;95.60;;;;;;5021212;28;20195;-71
2022/03/09 09:44:02;;;;;;;7.40;5.23;;;7.60;95.80;;;;;;5017625;28;20270;-71
2022/03/09 09:46:28;;;;;;;5.83;4.70;;;7.70;96.70;;;;;;5006537;28;20199;-71
2022/03/09 09:48:53;;;;;;;9.57;4.63;;;7.70;96.20;;;;;;5009836;28;20207;-73
2022/03/09 09:51:23;;;;;;;6.57;4.83;;;8.10;95.50;;;;;;5010003;28;20185;-74
2022/03/09 09:53:49;;;;;;;8.20;6.00;;;8.40;94.70;;;;;;4979283;28;20233;-73
2022/03/09 09:56:14;;;;;;;8.60;5.47;;;8.40;94.30;;;;;;5017787;28;20672;-72
2022/03/09 09:58:42;;;;;;;7.93;5.50;;;8.30;94.70;;;;;;5017128;28;20343;-72
2022/03/09 10:01:08;;;;;;;7.03;4.67;;;8.30;95.10;;;;;;5013817;28;20183;-69
2022/03/09 10:03:34;;;;;;;7.03;4.63;;;8.40;94.60;;;;;;5021020;28;20196;-69
2022/03/09 10:06:00;;;;;;;5.27;3.57;;;8.40;94.70;;;;;;5020038;28;20671;-69
2022/03/09 10:08:25;;;;;;;5.20;3.60;;;8.60;93.40;;;;;;5012675;28;20193;-68
2022/03/09 10:10:59;;;;;;;3.07;2.60;;;8.70;93.70;;;;;;5010825;28;20199;-69
2022/03/09 10:13:26;;;;;;;4.20;3.27;;;8.90;92.70;;;;;;5010302;28;20191;-69
2022/03/09 10:16:20;;;;;;;9.40;4.63;;;8.90;91.60;;;;;;5017832;28;20572;-69
2022/03/09 10:18:50;;;;;;;5.50;3.97;;;9.10;91.80;;;;;;5004350;28;20202;-70
2022/03/09 10:21:19;;;;;;;5.87;4.50;;;9.00;91.60;;;;;;5021730;28;20208;-69
2022/03/09 10:24:01;;;;;;;8.57;5.30;;;9.00;91.30;;;;;;5004215;28;20754;-73
2022/03/09 10:26:44;;;;;;;8.63;4.70;;;8.90;91.60;;;;;;4999113;28;20220;-72
2022/03/09 10:29:12;;;;;;;7.60;5.20;;;9.00;92.10;;;;;;5019577;28;20203;-72
2022/03/09 10:31:43;;;;;;;10.80;6.67;;;9.10;91.00;;;;;;5006045;28;20175;-71
2022/03/09 10:34:14;;;;;;;8.40;5.10;;;9.40;90.50;;;;;;4997246;28;20199;-71
2022/03/09 10:36:54;;;;;;;11.37;6.30;;;9.70;90.40;;;;;;5014352;28;20204;-71
2022/03/09 10:39:22;;;;;;;11.67;6.53;;;9.80;89.30;;;;;;5006619;28;20644;-73
2022/03/09 10:41:47;;;;;;;10.83;6.37;;;9.70;87.50;;;;;;5017881;28;20642;-70
2022/03/09 10:44:13;;;;;;;11.90;7.07;;;9.60;90.00;;;;;;5003664;28;20194;-69
2022/03/09 10:46:41;;;;;;;12.97;6.93;;;9.50;87.20;;;;;;5012457;28;20183;-67
2022/03/09 10:49:07;;;;;;;12.67;6.53;;;9.60;88.90;;;;;;5018003;28;20224;-68
2022/03/09 10:51:41;;;;;;;10.50;5.93;;;9.90;89.00;;;;;;5015276;28;20531;-67
2022/03/09 10:54:20;;;;;;;8.90;5.17;;;10.40;86.40;;;;;;5010794;28;20220;-67
2022/03/09 10:56:46;;;;;;;12.17;5.83;;;10.70;84.40;;;;;;5013447;28;20618;-68
2022/03/09 10:59:16;;;;;;;10.93;6.23;;;11.00;80.90;;;;;;5011888;28;20213;-70
2022/03/09 11:01:43;;;;;;;10.87;6.73;;;11.20;81.20;;;;;;5016575;28;20221;-72
2022/03/09 11:04:17;;;;;;;9.10;6.07;;;11.40;80.40;;;;;;5017873;28;20681;-69
2022/03/09 11:06:46;;;;;;;13.57;6.03;;;11.60;78.90;;;;;;5017710;28;20651;-70
2022/03/09 11:09:18;;;;;;;10.07;6.70;;;11.70;78.00;;;;;;5003656;28;20237;-69
2022/03/09 11:11:48;;;;;;;8.87;6.23;;;11.80;77.40;;;;;;4997380;28;20210;-69
2022/03/09 11:14:14;;;;;;;14.13;6.37;;;12.00;76.10;;;;;;5017463;28;20607;-70
2022/03/09 11:16:42;;;;;;;9.40;5.97;;;12.10;73.20;;;;;;5008563;28;20430;-69
2022/03/09 11:19:09;;;;;;;9.07;6.00;;;12.20;73.40;;;;;;5013242;28;20204;-68
2022/03/09 11:21:36;;;;;;;12.33;6.63;;;12.40;72.70;;;;;;5011322;28;20828;-70
2022/03/09 11:24:06;;;;;;;10.03;6.10;;;12.60;71.10;;;;;;5014852;28;20216;-69
2022/03/09 11:26:34;;;;;;;8.90;6.00;;;12.90;69.90;;;;;;5004875;28;20879;-69
2022/03/09 11:29:05;;;;;;;9.73;6.10;;;12.80;68.80;;;;;;5015433;28;20550;-69
2022/03/09 11:31:51;;;;;;;8.00;4.87;;;12.80;69.00;;;;;;5003233;28;20194;-67
2022/03/09 11:34:43;;;;;;;7.43;4.90;;;13.30;68.10;;;;;;5000682;28;20208;-69
2022/03/09 11:37:17;;;;;;;8.43;5.23;;;13.60;65.70;;;;;;5004378;28;20200;-70
2022/03/09 11:39:47;;;;;;;9.97;5.73;;;13.80;65.00;;;;;;5009415;28;20209;-70
2022/03/09 11:42:22;;;;;;;8.20;5.40;;;13.90;64.10;;;;;;5008142;28;20253;-70
2022/03/09 11:44:51;;;;;;;8.70;5.87;;;14.20;63.30;;;;;;5014269;28;20203;-71
2022/03/09 11:47:18;;;;;;;8.93;4.97;;;14.10;59.90;;;;;;5004672;28;20234;-68
2022/03/09 11:49:49;;;;;;;8.57;4.60;;;14.40;61.50;;;;;;5014062;28;20208;-68
2022/03/09 11:52:16;;;;;;;9.57;4.70;;;14.70;59.50;;;;;;4996019;28;20217;-69
2022/03/09 11:54:55;;;;;;;7.50;5.43;;;14.80;58.80;;;;;;5017667;28;20224;-70
2022/03/09 11:57:44;;;;;;;5.60;4.90;;;14.90;58.30;;;;;;5008458;28;20219;-69
2022/03/09 12:00:14;;;;;;;8.10;5.10;;;15.20;58.30;;;;;;5008549;28;20185;-70
2022/03/09 12:02:44;;;;;;;9.67;5.60;;;15.40;57.10;;;;;;5008136;28;20204;-70
2022/03/09 12:05:24;;;;;;;6.67;4.67;;;15.10;57.20;;;;;;5021894;28;20218;-74
2022/03/09 12:08:09;;;;;;;10.33;5.20;;;15.40;57.10;;;;;;5003826;28;20207;-73
2022/03/09 12:10:51;;;;;;;7.20;5.00;;;15.90;55.30;;;;;;5018200;28;20211;-73
2022/03/09 12:13:38;;;;;;;5.77;4.67;;;16.10;53.10;;;;;;5012929;28;20439;-70
2022/03/09 12:16:18;;;;;;;7.00;4.30;;;16.40;52.50;;;;;;5020080;28;20286;-76
2022/03/09 12:19:04;;;;;;;6.13;4.20;;;16.30;50.80;;;;;;4995797;28;20203;-71
2022/03/09 12:21:35;;;;;;;7.03;4.87;;;16.40;52.00;;;;;;4970043;28;20815;-71
2022/03/09 12:24:03;;;;;;;6.10;4.33;;;16.00;50.80;;;;;;5014748;28;20219;-71
2022/03/09 12:26:47;;;;;;;5.13;4.63;;;16.50;52.10;;;;;;5021499;28;20601;-78
2022/03/09 12:29:21;;;;;;;7.17;4.27;;;16.90;49.80;;;;;;4988106;28;20189;-74
2022/03/09 12:32:07;;;;;;;6.50;4.13;;;17.20;47.00;;;;;;5008880;28;20195;-69
2022/03/09 12:34:35;;;;;;;4.20;3.67;;;17.20;45.90;;;;;;5012640;28;20326;-67
2022/03/09 12:37:01;;;;;;;6.30;4.67;;;17.00;46.10;;;;;;5005330;28;20227;-69
2022/03/09 12:39:27;;;;;;;7.43;4.27;;;17.50;46.50;;;;;;5016555;28;20180;-69
2022/03/09 12:41:54;;;;;;;6.50;4.43;;;17.80;46.00;;;;;;5005625;28;20651;-68
2022/03/09 12:44:23;;;;;;;4.93;4.00;;;18.20;46.30;;;;;;5019694;28;20184;-66